createdAt,value
2022-11-20T00:01:19.125Z,4.18
2022-11-20T00:03:47.016Z,3.30
2022-11-20T00:06:17.922Z,3.58
2022-11-20T00:08:46.661Z,3.42
2022-11-20T00:11:22.758Z,3.42
2022-11-20T00:13:53.074Z,3.38
2022-11-20T00:16:23.781Z,3.25
2022-11-20T00:18:51.830Z,3.40
2022-11-20T00:21:27.596Z,3.35
2022-11-20T00:23:56.927Z,3.75
2022-11-20T00:26:25.844Z,3.80
2022-11-20T00:28:56.001Z,3.80
2022-11-20T00:31:23.604Z,3.42
2022-11-20T00:33:51.540Z,3.35
2022-11-20T00:36:24.523Z,4.78
2022-11-20T00:38:53.449Z,3.70
2022-11-20T00:41:21.367Z,4.20
2022-11-20T00:43:48.846Z,3.35
2022-11-20T00:46:19.215Z,3.47
2022-11-20T00:48:47.473Z,3.10
2022-11-20T00:51:17.589Z,4.20
2022-11-20T00:53:45.721Z,3.35
2022-11-20T00:56:15.582Z,3.10
2022-11-20T00:58:45.125Z,3.05
2022-11-20T01:01:14.065Z,3.53
2022-11-20T01:03:43.659Z,3.33
2022-11-20T01:06:18.097Z,3.50
2022-11-20T01:08:46.299Z,3.97
2022-11-20T01:11:16.555Z,3.88
2022-11-20T01:13:46.095Z,3.30
2022-11-20T01:16:14.899Z,3.25
2022-11-20T01:18:45.324Z,3.72
2022-11-20T01:21:17.735Z,3.70
2022-11-20T01:23:45.862Z,3.38
2022-11-20T01:26:16.798Z,3.22
2022-11-20T01:28:44.569Z,3.30
2022-11-20T01:31:26.485Z,3.55
2022-11-20T01:33:56.605Z,3.50
2022-11-20T01:36:27.518Z,3.28
2022-11-20T01:38:57.814Z,3.45
2022-11-20T01:41:45.312Z,3.22
2022-11-20T01:47:07.530Z,3.92
2022-11-20T01:49:47.672Z,3.47
2022-11-20T01:52:20.379Z,3.15
2022-11-20T01:55:00.276Z,3.45
2022-11-20T01:57:30.783Z,3.15
2022-11-20T02:00:02.784Z,3.30
2022-11-20T02:02:43.687Z,3.30
2022-11-20T02:05:35.148Z,4.28
2022-11-20T02:08:05.530Z,3.05
2022-11-20T02:10:34.030Z,3.50
2022-11-20T02:13:20.487Z,3.28
2022-11-20T02:15:48.471Z,3.25
2022-11-20T02:18:18.406Z,3.28
2022-11-20T02:20:50.364Z,3.85
2022-11-20T02:23:44.522Z,3.08
2022-11-20T02:26:15.307Z,3.38
2022-11-20T02:28:42.884Z,3.22
2022-11-20T02:31:10.333Z,3.20
2022-11-20T02:33:37.834Z,3.20
2022-11-20T02:36:05.773Z,3.38
2022-11-20T02:38:33.377Z,3.17
2022-11-20T02:41:00.832Z,3.70
2022-11-20T02:43:28.242Z,3.35
2022-11-20T02:45:55.645Z,3.35
2022-11-20T02:48:25.207Z,3.50
2022-11-20T02:50:52.841Z,3.17
2022-11-20T02:53:20.522Z,3.25
2022-11-20T02:55:47.950Z,3.78
2022-11-20T02:58:15.397Z,3.58
2022-11-20T03:00:42.857Z,3.50
2022-11-20T03:03:10.331Z,3.25
2022-11-20T03:05:37.757Z,3.28
2022-11-20T03:08:05.420Z,3.22
2022-11-20T03:10:32.896Z,3.60
2022-11-20T03:13:00.313Z,3.58
2022-11-20T03:15:27.725Z,3.30
2022-11-20T03:17:56.515Z,3.53
2022-11-20T03:20:24.267Z,3.50
2022-11-20T03:22:51.919Z,3.33
2022-11-20T03:25:19.357Z,3.72
2022-11-20T03:27:46.811Z,3.40
2022-11-20T03:30:15.558Z,3.47
2022-11-20T03:32:43.112Z,4.18
2022-11-20T03:35:11.028Z,3.15
2022-11-20T03:37:38.519Z,3.72
2022-11-20T03:40:06.775Z,3.08
2022-11-20T03:42:46.502Z,3.35
2022-11-20T03:45:16.061Z,3.60
2022-11-20T03:47:44.436Z,3.33
2022-11-20T03:50:14.573Z,3.20
2022-11-20T03:52:42.538Z,3.60
2022-11-20T03:55:10.511Z,4.05
2022-11-20T03:57:37.988Z,3.58
2022-11-20T04:00:06.834Z,3.45
2022-11-20T04:02:34.229Z,3.17
2022-11-20T04:05:01.643Z,3.38
2022-11-20T04:07:29.080Z,3.40
2022-11-20T04:09:56.500Z,4.20
2022-11-20T04:12:23.882Z,3.25
2022-11-20T04:14:51.304Z,3.25
2022-11-20T04:17:18.708Z,3.53
2022-11-20T04:19:46.251Z,3.40
2022-11-20T04:22:13.700Z,3.47
2022-11-20T04:24:41.128Z,3.28
2022-11-20T04:27:08.565Z,3.45
2022-11-20T04:29:35.973Z,3.60
2022-11-20T04:32:03.511Z,3.42
2022-11-20T04:34:30.889Z,3.20
2022-11-20T04:36:58.438Z,3.55
2022-11-20T04:39:25.859Z,3.08
2022-11-20T04:42:12.220Z,3.50
2022-11-20T04:44:39.702Z,3.30
2022-11-20T04:47:07.219Z,3.20
2022-11-20T04:49:35.024Z,3.22
2022-11-20T04:52:02.513Z,3.40
2022-11-20T04:54:29.937Z,3.40
2022-11-20T04:56:57.696Z,3.20
2022-11-20T04:59:25.122Z,3.55
2022-11-20T05:01:53.028Z,3.92
2022-11-20T05:04:20.492Z,3.90
2022-11-20T05:06:47.964Z,3.17
2022-11-20T05:09:15.329Z,3.55
2022-11-20T05:11:42.770Z,3.40
2022-11-20T05:14:10.173Z,3.40
2022-11-20T05:16:37.756Z,3.47
2022-11-20T05:19:05.259Z,3.45
2022-11-20T05:21:35.728Z,3.72
2022-11-20T05:24:03.409Z,3.35
2022-11-20T05:26:30.843Z,3.80
2022-11-20T05:28:58.372Z,3.50
2022-11-20T05:31:28.222Z,3.35
2022-11-20T05:33:57.792Z,3.85
2022-11-20T05:36:25.546Z,3.60
2022-11-20T05:38:55.602Z,3.80
2022-11-20T05:41:26.290Z,3.25
2022-11-20T05:43:53.756Z,2.97
2022-11-20T05:46:27.747Z,3.30
2022-11-20T05:48:57.869Z,3.70
2022-11-20T05:51:26.385Z,3.78
2022-11-20T05:53:53.940Z,3.95
2022-11-20T05:56:22.997Z,3.70
2022-11-20T05:58:50.602Z,3.22
2022-11-20T06:01:23.838Z,3.58
2022-11-20T06:03:52.248Z,3.72
2022-11-20T06:06:20.801Z,4.00
2022-11-20T06:08:48.753Z,3.40
2022-11-20T06:11:17.806Z,4.13
2022-11-20T06:13:46.783Z,5.13
2022-11-20T06:16:16.954Z,3.70
2022-11-20T06:18:44.848Z,3.88
2022-11-20T06:21:15.113Z,3.53
2022-11-20T06:23:42.993Z,3.17
2022-11-20T06:26:12.854Z,3.63
2022-11-20T06:28:40.808Z,3.63
2022-11-20T06:31:11.413Z,4.10
2022-11-20T06:33:38.924Z,3.67
2022-11-20T06:36:10.568Z,3.60
2022-11-20T06:38:39.680Z,3.40
2022-11-20T06:41:11.030Z,3.60
2022-11-20T06:43:38.590Z,3.35
2022-11-20T06:46:06.189Z,3.63
2022-11-20T06:48:33.632Z,3.40
2022-11-20T06:51:03.631Z,3.50
2022-11-20T06:53:31.403Z,3.85
2022-11-20T06:55:58.914Z,3.85
2022-11-20T06:58:31.313Z,3.60
2022-11-20T07:01:00.138Z,3.80
2022-11-20T07:03:27.769Z,3.55
2022-11-20T07:05:59.400Z,3.65
2022-11-20T07:08:26.910Z,3.72
2022-11-20T07:10:58.085Z,3.72
2022-11-20T07:13:25.512Z,3.95
2022-11-20T07:15:53.053Z,4.13
2022-11-20T07:18:20.568Z,4.28
2022-11-20T07:20:47.965Z,4.30
2022-11-20T07:23:15.533Z,4.03
2022-11-20T07:25:43.028Z,4.43
2022-11-20T07:28:11.712Z,3.80
2022-11-20T07:30:39.183Z,4.10
2022-11-20T07:33:06.553Z,4.28
2022-11-20T07:35:34.088Z,3.80
2022-11-20T07:38:01.525Z,4.30
2022-11-20T07:40:29.025Z,3.70
2022-11-20T07:42:57.127Z,4.05
2022-11-20T07:45:25.601Z,4.15
2022-11-20T07:47:53.141Z,4.32
2022-11-20T07:50:21.020Z,3.47
2022-11-20T07:52:48.754Z,3.80
2022-11-20T07:55:16.455Z,3.90
2022-11-20T07:57:43.937Z,4.13
2022-11-20T08:00:12.566Z,4.20
2022-11-20T08:02:41.736Z,3.83
2022-11-20T08:05:10.543Z,3.35
2022-11-20T08:07:42.733Z,4.20
2022-11-20T08:10:12.800Z,3.72
2022-11-20T08:13:09.925Z,4.15
2022-11-20T08:15:39.364Z,3.67
2022-11-20T08:21:05.226Z,3.85
2022-11-20T08:23:32.823Z,4.50
2022-11-20T08:26:00.224Z,4.07
2022-11-20T08:28:27.620Z,8.50
2022-11-20T08:31:00.556Z,5.72
2022-11-20T08:33:28.772Z,5.57
2022-11-20T08:36:03.947Z,5.85
2022-11-20T08:38:31.856Z,6.13
2022-11-20T08:41:19.130Z,7.65
2022-11-20T08:43:46.563Z,6.60
2022-11-20T08:46:14.073Z,9.60
2022-11-20T08:48:41.600Z,4.93
2022-11-20T08:51:09.884Z,4.57
2022-11-20T08:53:37.873Z,6.18
2022-11-20T08:56:05.721Z,5.13
2022-11-20T08:58:48.864Z,5.32
2022-11-20T09:03:49.006Z,4.10
2022-11-20T09:06:17.062Z,9.63
2022-11-20T09:08:44.565Z,5.28
2022-11-20T09:11:12.004Z,5.32
2022-11-20T09:13:39.472Z,4.70
2022-11-20T09:16:09.448Z,6.25
2022-11-20T09:18:38.339Z,5.10
2022-11-20T09:21:11.265Z,10.93
2022-11-20T09:23:39.976Z,4.30
2022-11-20T09:26:14.340Z,8.50
2022-11-20T09:28:42.124Z,4.93
2022-11-20T09:31:18.765Z,5.18
2022-11-20T09:33:46.211Z,4.65
2022-11-20T09:36:13.684Z,4.43
2022-11-20T09:38:41.160Z,3.88
2022-11-20T09:41:38.389Z,4.35
2022-11-20T09:44:24.234Z,6.60
2022-11-20T09:47:13.985Z,4.30
2022-11-20T09:50:07.364Z,4.75
2022-11-20T09:52:49.275Z,3.75
2022-11-20T09:55:17.640Z,3.75
2022-11-20T09:57:48.028Z,4.20
2022-11-20T10:00:18.178Z,5.10
2022-11-20T10:03:02.706Z,7.22
2022-11-20T10:05:47.543Z,3.80
2022-11-20T10:08:24.620Z,3.83
2022-11-20T10:11:31.960Z,8.07
2022-11-20T10:14:08.150Z,6.85
2022-11-20T10:17:06.384Z,8.10
2022-11-20T10:19:43.893Z,8.50
2022-11-20T10:22:47.649Z,8.18
2022-11-20T10:25:43.874Z,4.70
2022-11-20T10:28:24.487Z,9.32
2022-11-20T10:31:01.516Z,5.75
2022-11-20T10:33:57.056Z,7.47
2022-11-20T10:36:31.656Z,6.43
2022-11-20T10:39:06.986Z,5.65
2022-11-20T10:41:41.226Z,9.63
2022-11-20T10:44:49.380Z,7.78
2022-11-20T10:47:19.591Z,4.15
2022-11-20T10:49:51.580Z,6.85
2022-11-20T10:52:24.736Z,9.13
2022-11-20T10:55:13.900Z,5.57
2022-11-20T10:57:58.790Z,6.63
2022-11-20T11:00:26.403Z,5.32
2022-11-20T11:02:57.334Z,9.32
2022-11-20T11:05:35.704Z,6.65
2022-11-20T11:08:05.726Z,6.28
2022-11-20T11:10:42.323Z,4.80
2022-11-20T11:13:21.980Z,6.55
2022-11-20T11:15:49.656Z,8.13
2022-11-20T11:18:32.710Z,5.43
2022-11-20T11:21:06.051Z,7.97
2022-11-20T11:23:43.729Z,6.32
2022-11-20T11:26:22.875Z,3.83
2022-11-20T11:29:05.885Z,5.78
2022-11-20T11:31:35.551Z,12.10
2022-11-20T11:34:12.645Z,6.10
2022-11-20T11:36:40.553Z,12.25
2022-11-20T11:39:15.379Z,5.38
2022-11-20T11:41:42.987Z,9.75
2022-11-20T11:44:36.689Z,6.75
2022-11-20T11:47:07.315Z,8.35
2022-11-20T11:49:34.731Z,8.32
2022-11-20T11:52:09.663Z,9.38
2022-11-20T11:54:50.392Z,8.02
2022-11-20T11:57:27.709Z,7.50
2022-11-20T12:00:11.087Z,6.47
2022-11-20T12:02:54.740Z,6.50
2022-11-20T12:05:22.236Z,6.97
2022-11-20T12:08:01.729Z,5.72
2022-11-20T12:11:03.169Z,7.38
2022-11-20T12:13:45.063Z,8.88
2022-11-20T12:16:15.425Z,5.20
2022-11-20T12:18:43.850Z,5.57
2022-11-20T12:21:30.316Z,6.22
2022-11-20T12:24:03.931Z,6.23
2022-11-20T12:27:00.080Z,5.85
2022-11-20T12:29:46.229Z,7.93
2022-11-20T12:32:16.308Z,6.35
2022-11-20T12:34:49.641Z,3.63
2022-11-20T12:37:25.965Z,6.32
2022-11-20T12:39:59.809Z,4.50
2022-11-20T12:43:04.566Z,6.85
2022-11-20T12:45:55.498Z,6.28
2022-11-20T12:48:46.032Z,3.92
2022-11-20T12:51:51.242Z,4.50
2022-11-20T12:54:37.036Z,3.97
2022-11-20T12:57:46.119Z,4.65
2022-11-20T13:00:20.672Z,3.78
2022-11-20T13:03:08.878Z,3.97
2022-11-20T13:06:01.550Z,4.15
2022-11-20T13:08:37.264Z,5.78
2022-11-20T13:11:18.157Z,4.28
2022-11-20T13:14:14.068Z,6.10
2022-11-20T13:17:07.681Z,3.92
2022-11-20T13:19:35.703Z,6.03
2022-11-20T13:22:03.333Z,5.25
2022-11-20T13:24:32.627Z,3.83
2022-11-20T13:27:09.348Z,3.75
2022-11-20T13:29:38.675Z,7.28
2022-11-20T13:32:16.751Z,4.03
2022-11-20T13:34:55.305Z,4.20
2022-11-20T13:37:40.672Z,4.22
2022-11-20T13:40:14.172Z,3.92
2022-11-20T13:42:52.647Z,7.07
2022-11-20T13:45:24.735Z,3.85
2022-11-20T13:47:53.614Z,3.33
2022-11-20T13:50:45.282Z,3.65
2022-11-20T13:53:33.424Z,5.07
2022-11-20T13:56:40.318Z,3.20
2022-11-20T13:59:32.516Z,3.63
2022-11-20T14:02:01.585Z,3.40
2022-11-20T14:04:34.106Z,4.65
2022-11-20T14:07:01.908Z,9.63
2022-11-20T14:09:32.603Z,3.05
2022-11-20T14:12:00.929Z,3.17
2022-11-20T14:14:30.505Z,3.10
2022-11-20T14:17:08.302Z,3.35
2022-11-20T14:19:38.079Z,3.75
2022-11-20T14:22:15.805Z,6.13
2022-11-20T14:24:43.280Z,3.42
2022-11-20T14:27:18.715Z,6.50
2022-11-20T14:29:49.061Z,3.45
2022-11-20T14:32:23.267Z,3.53
2022-11-20T14:34:51.880Z,4.03
2022-11-20T14:37:28.820Z,5.20
2022-11-20T14:39:59.833Z,3.13
2022-11-20T14:42:29.604Z,5.03
2022-11-20T14:44:59.416Z,3.97
2022-11-20T14:47:29.927Z,4.45
2022-11-20T14:49:58.875Z,3.40
2022-11-20T14:52:28.835Z,3.92
2022-11-20T14:55:02.848Z,4.70
2022-11-20T14:57:36.233Z,4.75
2022-11-20T15:00:15.980Z,2.78
2022-11-20T15:02:45.621Z,4.53
2022-11-20T15:05:13.944Z,3.30
2022-11-20T15:07:46.826Z,4.53
2022-11-20T15:10:25.226Z,3.45
2022-11-20T15:13:13.114Z,3.03
2022-11-20T15:15:55.971Z,3.38
2022-11-20T15:18:37.528Z,3.20
2022-11-20T15:21:12.705Z,3.25
2022-11-20T15:23:40.540Z,3.88
2022-11-20T15:26:09.750Z,2.85
2022-11-20T15:28:41.422Z,3.00
2022-11-20T15:31:13.549Z,3.83
2022-11-20T15:33:41.105Z,3.15
2022-11-20T15:36:09.375Z,3.92
2022-11-20T15:38:37.628Z,7.15
2022-11-20T15:41:06.056Z,5.88
2022-11-20T15:43:33.528Z,4.68
2022-11-20T15:46:13.973Z,4.82
2022-11-20T15:48:48.258Z,4.88
2022-11-20T15:51:33.523Z,6.50
2022-11-20T15:54:02.933Z,5.45
2022-11-20T15:56:30.417Z,4.60
2022-11-20T15:58:57.868Z,5.10
2022-11-20T16:01:25.354Z,7.22
2022-11-20T16:03:53.105Z,4.05
2022-11-20T16:06:20.985Z,4.22
2022-11-20T16:08:48.563Z,3.95
2022-11-20T16:11:18.252Z,5.22
2022-11-20T16:14:04.964Z,4.45
2022-11-20T16:16:35.101Z,3.63
2022-11-20T16:19:02.981Z,4.63
2022-11-20T16:21:34.039Z,4.00
2022-11-20T16:24:04.482Z,4.78
2022-11-20T16:26:32.057Z,4.10
2022-11-20T16:29:01.126Z,4.28
2022-11-20T16:31:28.681Z,4.20
2022-11-20T16:34:01.640Z,4.07
2022-11-20T16:36:30.253Z,4.80
2022-11-20T16:39:00.623Z,3.75
2022-11-20T16:41:30.817Z,4.15
2022-11-20T16:44:01.264Z,7.75
2022-11-20T16:46:32.817Z,4.57
2022-11-20T16:49:02.797Z,3.85
2022-11-20T16:51:32.564Z,3.92
2022-11-20T16:54:02.557Z,3.85
2022-11-20T16:56:30.014Z,3.60
2022-11-20T16:58:59.015Z,4.55
2022-11-20T17:01:28.836Z,4.28
2022-11-20T17:04:01.684Z,5.32
2022-11-20T17:06:31.910Z,5.57
2022-11-20T17:08:59.903Z,5.25
2022-11-20T17:11:28.341Z,4.90
2022-11-20T17:13:57.174Z,5.13
2022-11-20T17:16:25.277Z,4.95
2022-11-20T17:18:59.771Z,5.47
2022-11-20T17:21:30.654Z,7.53
2022-11-20T17:24:03.195Z,4.32
2022-11-20T17:26:31.200Z,8.48
2022-11-20T17:29:12.991Z,4.93
2022-11-20T17:31:40.800Z,5.80
2022-11-20T17:34:12.154Z,5.28
2022-11-20T17:36:45.775Z,5.25
2022-11-20T17:39:15.079Z,5.80
2022-11-20T17:41:42.888Z,8.85
2022-11-20T17:44:11.747Z,5.03
2022-11-20T17:46:39.509Z,5.95
2022-11-20T17:49:07.608Z,6.35
2022-11-20T17:51:35.743Z,6.53
2022-11-20T17:54:07.247Z,7.60
2022-11-20T17:56:54.766Z,6.40
2022-11-20T17:59:22.408Z,6.03
2022-11-20T18:01:50.016Z,6.43
2022-11-20T18:04:17.954Z,5.82
2022-11-20T18:06:45.662Z,6.05
2022-11-20T18:09:13.417Z,6.68
2022-11-20T18:11:42.426Z,5.93
2022-11-20T18:14:36.102Z,5.75
2022-11-20T18:17:10.413Z,5.95
2022-11-20T18:20:00.679Z,7.90
2022-11-20T18:22:31.319Z,8.30
2022-11-20T18:24:58.790Z,8.27
2022-11-20T18:27:26.208Z,7.82
2022-11-20T18:29:53.678Z,8.45
2022-11-20T18:32:22.609Z,7.60
2022-11-20T18:34:50.652Z,7.38
2022-11-20T18:37:19.083Z,8.77
2022-11-20T18:39:46.570Z,8.32
2022-11-20T18:42:34.301Z,7.07
2022-11-20T18:45:04.350Z,7.95
2022-11-20T18:47:37.516Z,8.65
2022-11-20T18:50:07.322Z,7.90
2022-11-20T18:52:44.382Z,8.93
2022-11-20T18:55:14.254Z,8.70
2022-11-20T18:57:43.528Z,7.00
2022-11-20T19:00:11.558Z,8.15
2022-11-20T19:02:42.698Z,11.45
2022-11-20T19:05:12.234Z,11.98
2022-11-20T19:07:40.192Z,9.18
2022-11-20T19:10:08.039Z,7.78
2022-11-20T19:12:35.532Z,10.38
2022-11-20T19:15:03.233Z,13.32
2022-11-20T19:17:33.698Z,23.60
2022-11-20T19:20:01.246Z,14.65
2022-11-20T19:22:28.945Z,15.00
2022-11-20T19:24:56.645Z,17.23
2022-11-20T19:27:24.240Z,13.85
2022-11-20T19:29:51.852Z,14.23
2022-11-20T19:32:19.642Z,14.63
2022-11-20T19:34:47.306Z,14.55
2022-11-20T19:37:15.025Z,13.70
2022-11-20T19:39:42.882Z,15.93
2022-11-20T19:42:10.674Z,15.50
2022-11-20T19:44:38.735Z,13.63
2022-11-20T19:47:14.052Z,16.80
2022-11-20T19:49:42.825Z,17.07
2022-11-20T19:52:11.437Z,14.80
2022-11-20T19:54:38.935Z,16.65
2022-11-20T19:57:06.350Z,17.40
2022-11-20T19:59:33.793Z,16.02
2022-11-20T20:02:03.501Z,22.85
2022-11-20T20:04:31.021Z,16.63
2022-11-20T20:06:58.569Z,20.70
2022-11-20T20:09:26.996Z,17.25
2022-11-20T20:11:54.616Z,18.88
2022-11-20T20:14:22.127Z,17.70
2022-11-20T20:16:49.547Z,18.83
2022-11-20T20:19:17.234Z,17.33
2022-11-20T20:21:44.896Z,16.00
2022-11-20T20:24:12.468Z,20.67
2022-11-20T20:26:40.405Z,17.98
2022-11-20T20:29:08.044Z,19.98
2022-11-20T20:31:35.920Z,17.63
2022-11-20T20:34:05.423Z,19.75
2022-11-20T20:36:33.335Z,20.05
2022-11-20T20:39:02.676Z,19.38
2022-11-20T20:41:30.887Z,18.17
2022-11-20T20:44:17.141Z,18.45
2022-11-20T20:46:44.817Z,15.60
2022-11-20T20:49:12.636Z,15.57
2022-11-20T20:51:40.041Z,19.20
2022-11-20T20:54:07.708Z,20.85
2022-11-20T20:56:35.203Z,16.92
2022-11-20T20:59:04.061Z,18.15
2022-11-20T21:01:31.734Z,19.48
2022-11-20T21:04:00.069Z,18.88
2022-11-20T21:06:27.608Z,18.55
2022-11-20T21:08:57.282Z,19.80
2022-11-20T21:11:25.260Z,20.48
2022-11-20T21:13:52.837Z,19.65
2022-11-20T21:16:22.340Z,17.98
2022-11-20T21:18:49.929Z,21.67
2022-11-20T21:21:37.068Z,20.48
2022-11-20T21:24:04.916Z,20.50
2022-11-20T21:26:32.389Z,17.60
2022-11-20T21:28:59.826Z,21.45
2022-11-20T21:31:27.432Z,21.40
2022-11-20T21:33:56.927Z,18.02
2022-11-20T21:36:27.994Z,18.42
2022-11-20T21:38:57.078Z,20.20
2022-11-20T21:41:27.036Z,18.48
2022-11-20T21:44:28.903Z,17.60
2022-11-20T21:46:44.975Z,17.25
2022-11-20T21:49:12.645Z,19.55
2022-11-20T21:51:40.523Z,20.05
2022-11-20T21:54:10.594Z,18.33
2022-11-20T21:56:38.250Z,19.80
2022-11-20T21:59:05.972Z,20.20
2022-11-20T22:01:33.633Z,22.17
2022-11-20T22:04:02.769Z,19.42
2022-11-20T22:06:33.066Z,18.23
2022-11-20T22:09:01.385Z,21.02
2022-11-20T22:11:29.050Z,18.23
2022-11-20T22:14:15.467Z,18.20
2022-11-20T22:16:42.988Z,19.10
2022-11-20T22:19:10.489Z,18.40
2022-11-20T22:21:40.452Z,20.60
2022-11-20T22:24:12.137Z,18.83
2022-11-20T22:26:40.684Z,19.48
2022-11-20T22:29:13.911Z,19.92
2022-11-20T22:31:41.376Z,19.52
2022-11-20T22:34:13.067Z,18.70
2022-11-20T22:36:41.438Z,20.52
2022-11-20T22:39:09.287Z,15.88
2022-11-20T22:41:36.824Z,20.33
2022-11-20T22:44:07.105Z,20.13
2022-11-20T22:46:36.407Z,19.40
2022-11-20T22:49:11.009Z,17.58
2022-11-20T22:51:40.700Z,19.90
2022-11-20T22:54:11.189Z,20.38
2022-11-20T22:56:38.783Z,23.30
2022-11-20T22:59:06.217Z,19.73
2022-11-20T23:01:36.680Z,22.95
2022-11-20T23:04:07.117Z,20.02
2022-11-20T23:06:34.703Z,19.40
2022-11-20T23:09:06.752Z,24.23
2022-11-20T23:11:35.364Z,17.50
2022-11-20T23:14:11.614Z,18.83
2022-11-20T23:16:39.057Z,17.63
2022-11-20T23:19:10.414Z,17.80
2022-11-20T23:21:39.805Z,15.13
2022-11-20T23:24:08.690Z,18.13
2022-11-20T23:26:38.491Z,16.48
2022-11-20T23:29:06.454Z,16.85
2022-11-20T23:31:35.423Z,16.42
2022-11-20T23:34:02.972Z,17.63
2022-11-20T23:36:30.981Z,17.55
2022-11-20T23:38:58.531Z,15.68
2022-11-20T23:41:26.057Z,16.13
2022-11-20T23:43:53.832Z,19.63
2022-11-20T23:46:21.319Z,15.52
2022-11-20T23:48:48.858Z,16.60
2022-11-20T23:51:16.724Z,18.83
2022-11-20T23:53:44.371Z,15.90
2022-11-20T23:56:14.726Z,17.70
2022-11-20T23:58:42.771Z,16.15
